createdAt,value
2019-03-20T00:01:07.887Z,5.67
2019-03-20T00:03:40.531Z,5.80
2019-03-20T00:06:12.526Z,5.93
2019-03-20T00:08:44.589Z,5.27
2019-03-20T00:11:19.822Z,6.17
2019-03-20T00:13:52.288Z,6.07
2019-03-20T00:16:24.592Z,5.80
2019-03-20T00:18:58.196Z,6.40
2019-03-20T00:21:31.243Z,6.40
2019-03-20T00:24:05.856Z,6.93
2019-03-20T00:26:37.978Z,6.03
2019-03-20T00:29:11.498Z,6.30
2019-03-20T00:31:45.061Z,6.27
2019-03-20T00:34:17.072Z,5.90
2019-03-20T00:36:49.593Z,6.03
2019-03-20T00:39:21.755Z,6.17
2019-03-20T00:41:56.016Z,6.20
2019-03-20T00:44:29.078Z,6.27
2019-03-20T00:47:02.440Z,6.53
2019-03-20T00:49:34.513Z,6.70
2019-03-20T00:52:06.561Z,6.03
2019-03-20T00:54:39.536Z,6.10
2019-03-20T00:57:12.053Z,6.50
2019-03-20T00:59:44.008Z,6.20
2019-03-20T01:02:16.539Z,6.50
2019-03-20T01:04:49.840Z,6.30
2019-03-20T01:07:21.902Z,6.00
2019-03-20T01:09:55.673Z,6.43
2019-03-20T01:12:28.543Z,6.80
2019-03-20T01:15:01.214Z,6.43
2019-03-20T01:17:33.378Z,6.63
2019-03-20T01:20:06.961Z,6.20
2019-03-20T01:22:38.980Z,6.37
2019-03-20T01:25:14.502Z,6.33
2019-03-20T01:27:48.404Z,6.47
2019-03-20T01:30:51.745Z,6.17
2019-03-20T01:33:24.216Z,6.70
2019-03-20T01:35:58.302Z,6.30
2019-03-20T01:38:30.273Z,6.33
2019-03-20T01:41:03.345Z,6.13
2019-03-20T01:43:36.005Z,6.60
2019-03-20T01:46:08.369Z,5.90
2019-03-20T01:48:40.268Z,6.67
2019-03-20T01:51:22.547Z,5.77
2019-03-20T01:53:55.640Z,5.57
2019-03-20T01:56:28.703Z,5.57
2019-03-20T01:59:01.828Z,5.60
2019-03-20T02:01:34.051Z,5.40
2019-03-20T02:04:06.240Z,5.10
2019-03-20T02:06:38.969Z,5.47
2019-03-20T02:09:11.258Z,5.10
2019-03-20T02:11:43.147Z,4.90
2019-03-20T02:14:15.663Z,4.57
2019-03-20T02:16:47.709Z,5.20
2019-03-20T02:19:21.944Z,5.10
2019-03-20T02:21:54.043Z,5.53
2019-03-20T02:24:27.578Z,5.50
2019-03-20T02:27:00.483Z,5.60
2019-03-20T02:29:33.197Z,5.93
2019-03-20T02:32:06.217Z,5.23
2019-03-20T02:34:38.695Z,5.50
2019-03-20T02:37:10.963Z,5.37
2019-03-20T02:39:43.625Z,5.63
2019-03-20T02:42:16.657Z,5.83
2019-03-20T02:44:48.657Z,5.50
2019-03-20T02:47:22.475Z,5.40
2019-03-20T02:49:55.692Z,5.33
2019-03-20T02:52:29.183Z,5.30
2019-03-20T02:55:01.218Z,5.77
2019-03-20T02:57:33.213Z,5.43
2019-03-20T03:00:07.153Z,5.20
2019-03-20T03:02:40.269Z,5.60
2019-03-20T03:05:12.777Z,5.17
2019-03-20T03:07:45.113Z,4.93
2019-03-20T03:10:19.551Z,5.00
2019-03-20T03:12:51.927Z,5.30
2019-03-20T03:15:24.029Z,5.10
2019-03-20T03:17:57.176Z,5.60
2019-03-20T03:20:29.228Z,5.40
2019-03-20T03:23:02.232Z,4.80
2019-03-20T03:25:36.127Z,5.40
2019-03-20T03:28:10.141Z,5.33
2019-03-20T03:30:42.861Z,5.10
2019-03-20T03:33:15.028Z,5.10
2019-03-20T03:35:48.093Z,5.30
2019-03-20T03:38:22.838Z,4.83
2019-03-20T03:40:56.277Z,4.63
2019-03-20T03:43:28.373Z,5.10
2019-03-20T03:46:00.431Z,5.23
2019-03-20T03:48:32.511Z,5.07
2019-03-20T03:51:04.954Z,4.90
2019-03-20T03:53:38.227Z,5.07
2019-03-20T03:56:10.444Z,5.03
2019-03-20T03:58:44.205Z,5.10
2019-03-20T04:01:16.344Z,5.53
2019-03-20T04:03:48.462Z,4.83
2019-03-20T04:06:34.581Z,5.43
2019-03-20T04:08:54.299Z,5.23
2019-03-20T04:11:26.835Z,5.30
2019-03-20T04:13:58.848Z,5.30
2019-03-20T04:16:30.989Z,5.07
2019-03-20T04:19:02.930Z,6.00
2019-03-20T04:21:35.212Z,5.30
2019-03-20T04:24:07.421Z,5.13
2019-03-20T04:26:39.945Z,4.90
2019-03-20T04:29:13.076Z,5.40
2019-03-20T04:31:45.220Z,5.00
2019-03-20T04:34:17.469Z,5.40
2019-03-20T04:36:49.460Z,5.63
2019-03-20T04:39:21.512Z,5.60
2019-03-20T04:41:53.444Z,5.40
2019-03-20T04:44:25.859Z,5.20
2019-03-20T04:46:57.828Z,5.47
2019-03-20T04:49:29.761Z,5.23
2019-03-20T04:52:01.613Z,4.87
2019-03-20T04:54:44.917Z,5.20
2019-03-20T04:57:16.749Z,5.20
2019-03-20T04:59:49.650Z,6.20
2019-03-20T05:02:21.649Z,5.60
2019-03-20T05:04:54.052Z,5.90
2019-03-20T05:07:26.082Z,5.87
2019-03-20T05:09:58.451Z,5.03
2019-03-20T05:12:30.390Z,5.63
2019-03-20T05:15:02.683Z,5.83
2019-03-20T05:17:45.480Z,5.50
2019-03-20T05:20:17.369Z,4.97
2019-03-20T05:22:50.168Z,4.80
2019-03-20T05:25:23.181Z,5.20
2019-03-20T05:27:55.155Z,5.30
2019-03-20T05:30:27.530Z,6.30
2019-03-20T05:32:59.447Z,5.67
2019-03-20T05:38:36.722Z,5.27
2019-03-20T05:41:09.208Z,4.90
2019-03-20T05:43:41.156Z,5.30
2019-03-20T05:46:13.069Z,5.17
2019-03-20T05:48:45.009Z,4.97
2019-03-20T05:51:16.931Z,5.30
2019-03-20T05:53:48.843Z,5.30
2019-03-20T05:56:21.013Z,5.20
2019-03-20T05:58:58.838Z,5.80
2019-03-20T06:01:30.735Z,5.67
2019-03-20T06:04:02.682Z,5.63
2019-03-20T06:06:37.955Z,5.13
2019-03-20T06:09:12.629Z,4.97
2019-03-20T06:11:45.548Z,5.60
2019-03-20T06:14:18.102Z,5.20
2019-03-20T06:16:59.142Z,5.73
2019-03-20T06:19:31.073Z,5.17
2019-03-20T06:22:02.979Z,5.00
2019-03-20T06:24:35.367Z,5.67
2019-03-20T06:27:08.311Z,5.60
2019-03-20T06:29:40.682Z,5.87
2019-03-20T06:32:14.145Z,5.77
2019-03-20T06:34:48.844Z,6.37
2019-03-20T06:37:20.126Z,5.63
2019-03-20T06:39:53.390Z,5.73
2019-03-20T06:42:25.787Z,5.60
2019-03-20T06:44:57.655Z,5.83
2019-03-20T06:47:29.981Z,6.53
2019-03-20T06:50:01.896Z,5.57
2019-03-20T06:52:33.806Z,4.60
2019-03-20T06:55:06.239Z,5.40
2019-03-20T06:57:38.087Z,5.47
2019-03-20T07:00:53.288Z,5.00
2019-03-20T07:04:07.363Z,5.07
2019-03-20T07:07:19.301Z,4.80
2019-03-20T07:10:16.738Z,4.90
2019-03-20T07:12:48.656Z,4.73
2019-03-20T07:15:20.565Z,5.27
2019-03-20T07:17:52.597Z,4.77
2019-03-20T07:20:25.276Z,5.00
2019-03-20T07:22:57.117Z,4.37
2019-03-20T07:25:29.011Z,4.80
2019-03-20T07:28:00.896Z,4.70
2019-03-20T07:30:32.767Z,4.43
2019-03-20T07:33:04.694Z,4.47
2019-03-20T07:35:36.597Z,5.13
2019-03-20T07:38:10.010Z,4.67
2019-03-20T07:40:42.995Z,4.20
2019-03-20T07:43:15.332Z,5.17
2019-03-20T07:45:47.233Z,4.63
2019-03-20T07:48:22.292Z,4.20
2019-03-20T07:50:53.163Z,4.30
2019-03-20T07:53:26.434Z,4.63
2019-03-20T07:55:58.383Z,4.40
2019-03-20T07:58:30.739Z,4.30
2019-03-20T08:01:03.276Z,4.70
2019-03-20T08:03:35.213Z,4.67
2019-03-20T08:06:07.070Z,4.70
2019-03-20T08:08:39.411Z,4.90
2019-03-20T08:11:12.292Z,4.67
2019-03-20T08:13:44.154Z,4.60
2019-03-20T08:16:17.341Z,4.63
2019-03-20T08:18:49.648Z,4.60
2019-03-20T08:21:21.475Z,4.83
2019-03-20T08:23:53.336Z,4.70
2019-03-20T08:26:25.280Z,5.00
2019-03-20T08:28:57.620Z,4.13
2019-03-20T08:31:29.507Z,4.47
2019-03-20T08:34:01.382Z,4.47
2019-03-20T08:36:33.235Z,4.17
2019-03-20T08:39:06.910Z,4.17
2019-03-20T08:41:41.191Z,4.63
2019-03-20T08:44:13.529Z,3.90
2019-03-20T08:46:45.306Z,4.30
2019-03-20T08:49:17.207Z,4.27
2019-03-20T08:51:49.524Z,4.57
2019-03-20T08:54:21.747Z,4.13
2019-03-20T08:56:54.131Z,4.50
2019-03-20T08:59:26.503Z,4.70
2019-03-20T09:01:58.384Z,5.43
2019-03-20T09:04:30.705Z,5.33
2019-03-20T09:07:02.597Z,4.33
2019-03-20T09:09:35.576Z,4.30
2019-03-20T09:12:08.369Z,4.60
2019-03-20T09:14:40.199Z,4.57
2019-03-20T09:17:12.586Z,4.67
2019-03-20T09:19:45.202Z,5.27
2019-03-20T09:22:17.028Z,5.20
2019-03-20T09:24:48.866Z,4.33
2019-03-20T09:27:20.760Z,4.30
2019-03-20T09:29:52.555Z,4.40
2019-03-20T09:32:24.993Z,4.60
2019-03-20T09:34:56.817Z,4.93
2019-03-20T09:37:29.153Z,4.23
2019-03-20T09:40:01.023Z,4.57
2019-03-20T09:42:34.174Z,4.37
2019-03-20T09:45:07.489Z,3.80
2019-03-20T09:47:39.772Z,3.77
2019-03-20T09:50:13.160Z,3.60
2019-03-20T09:52:45.036Z,3.27
2019-03-20T09:55:17.127Z,2.93
2019-03-20T09:57:49.690Z,3.57
2019-03-20T10:00:23.995Z,2.20
2019-03-20T10:02:56.091Z,1.87
2019-03-20T10:05:27.882Z,1.50
2019-03-20T10:07:59.746Z,1.60
2019-03-20T10:10:32.122Z,1.70
2019-03-20T10:13:05.197Z,1.30
2019-03-20T10:15:37.835Z,1.20
2019-03-20T10:18:10.159Z,1.87
2019-03-20T10:20:43.414Z,1.87
2019-03-20T10:23:16.684Z,2.13
2019-03-20T10:25:48.604Z,2.37
2019-03-20T10:28:20.979Z,2.20
2019-03-20T10:30:53.001Z,2.10
2019-03-20T10:33:26.882Z,2.07
2019-03-20T10:35:58.726Z,2.13
2019-03-20T10:38:31.066Z,3.93
2019-03-20T10:41:02.874Z,1.80
2019-03-20T10:43:34.748Z,1.60
2019-03-20T10:46:06.653Z,1.70
2019-03-20T10:48:39.165Z,2.00
2019-03-20T10:51:12.852Z,2.03
2019-03-20T10:53:45.060Z,2.10
2019-03-20T10:56:18.804Z,2.03
2019-03-20T10:58:51.789Z,2.00
2019-03-20T11:01:24.225Z,2.00
2019-03-20T11:03:56.701Z,2.20
2019-03-20T11:06:29.946Z,2.50
2019-03-20T11:09:02.113Z,2.57
2019-03-20T11:11:36.741Z,2.03
2019-03-20T11:14:08.944Z,2.50
2019-03-20T11:16:41.850Z,2.30
2019-03-20T11:19:13.793Z,2.13
2019-03-20T11:21:46.185Z,2.40
2019-03-20T11:24:19.380Z,2.23
2019-03-20T11:26:51.594Z,1.90
2019-03-20T11:29:25.484Z,1.97
2019-03-20T11:31:59.428Z,2.57
2019-03-20T11:34:32.831Z,2.33
2019-03-20T11:37:05.202Z,2.40
2019-03-20T11:39:37.484Z,2.20
2019-03-20T11:42:10.429Z,2.07
2019-03-20T11:44:42.442Z,1.80
2019-03-20T11:47:14.747Z,1.93
2019-03-20T11:49:48.298Z,2.17
2019-03-20T11:52:21.779Z,2.00
2019-03-20T11:54:53.995Z,1.90
2019-03-20T11:57:27.108Z,2.00
2019-03-20T12:00:00.428Z,1.90
2019-03-20T12:02:33.161Z,1.50
2019-03-20T12:05:06.221Z,1.60
2019-03-20T12:07:38.803Z,1.87
2019-03-20T12:10:14.934Z,1.67
2019-03-20T12:12:47.391Z,1.70
2019-03-20T12:15:20.730Z,2.00
2019-03-20T12:17:53.448Z,2.00
2019-03-20T12:20:26.467Z,1.93
2019-03-20T12:22:58.641Z,1.80
2019-03-20T12:25:31.017Z,1.83
2019-03-20T12:28:03.068Z,2.03
2019-03-20T12:30:35.419Z,1.90
2019-03-20T12:33:09.113Z,1.60
2019-03-20T12:35:42.293Z,1.80
2019-03-20T12:38:15.461Z,1.63
2019-03-20T12:40:49.044Z,1.60
2019-03-20T12:43:21.293Z,1.80
2019-03-20T12:45:53.884Z,1.77
2019-03-20T12:48:30.738Z,1.97
2019-03-20T12:51:02.956Z,2.00
2019-03-20T12:53:35.653Z,1.90
2019-03-20T12:56:07.692Z,1.80
2019-03-20T12:58:41.561Z,1.80
2019-03-20T13:01:15.059Z,1.83
2019-03-20T13:03:48.013Z,1.77
2019-03-20T13:06:20.216Z,2.00
2019-03-20T13:08:53.629Z,1.80
2019-03-20T13:11:26.922Z,1.57
2019-03-20T13:13:59.109Z,1.90
2019-03-20T13:16:32.603Z,1.60
2019-03-20T13:19:04.997Z,1.53
2019-03-20T13:21:39.070Z,1.77
2019-03-20T13:24:11.049Z,1.60
2019-03-20T13:26:43.247Z,1.80
2019-03-20T13:29:16.247Z,1.63
2019-03-20T13:31:48.652Z,1.50
2019-03-20T13:34:23.612Z,1.60
2019-03-20T13:36:57.634Z,1.83
2019-03-20T13:39:30.275Z,1.67
2019-03-20T13:42:02.579Z,2.00
2019-03-20T13:44:34.605Z,1.77
2019-03-20T13:47:08.226Z,2.00
2019-03-20T13:49:41.182Z,2.03
2019-03-20T13:52:15.090Z,1.83
2019-03-20T13:54:47.157Z,1.77
2019-03-20T13:57:19.443Z,1.50
2019-03-20T13:59:52.376Z,1.73
2019-03-20T14:02:24.231Z,1.90
2019-03-20T14:05:00.042Z,1.93
2019-03-20T14:07:32.787Z,2.10
2019-03-20T14:10:07.935Z,1.60
2019-03-20T14:12:40.606Z,1.63
2019-03-20T14:15:13.675Z,1.70
2019-03-20T14:17:47.776Z,1.73
2019-03-20T14:20:22.419Z,1.70
2019-03-20T14:22:56.164Z,1.93
2019-03-20T14:25:30.079Z,1.70
2019-03-20T14:28:02.336Z,1.87
2019-03-20T14:30:35.131Z,1.83
2019-03-20T14:33:08.211Z,2.00
2019-03-20T14:35:40.180Z,1.90
2019-03-20T14:38:12.947Z,1.87
2019-03-20T14:40:47.275Z,1.60
2019-03-20T14:43:19.656Z,1.80
2019-03-20T14:45:51.901Z,1.93
2019-03-20T14:48:26.214Z,1.70
2019-03-20T14:50:59.021Z,2.20
2019-03-20T14:53:32.116Z,1.77
2019-03-20T14:56:05.909Z,2.07
2019-03-20T14:58:38.914Z,1.60
2019-03-20T15:01:11.231Z,1.80
2019-03-20T15:03:44.261Z,1.70
2019-03-20T15:06:18.080Z,2.00
2019-03-20T15:08:50.193Z,1.80
2019-03-20T15:11:22.549Z,1.83
2019-03-20T15:13:55.427Z,1.80
2019-03-20T15:16:27.634Z,1.83
2019-03-20T15:19:01.011Z,1.73
2019-03-20T15:21:32.884Z,1.60
2019-03-20T15:24:05.273Z,1.60
2019-03-20T15:26:39.080Z,1.97
2019-03-20T15:29:11.880Z,2.30
2019-03-20T15:31:45.584Z,1.83
2019-03-20T15:34:18.051Z,1.90
2019-03-20T15:36:50.080Z,2.00
2019-03-20T15:39:24.480Z,2.03
2019-03-20T15:42:00.517Z,1.70
2019-03-20T15:44:33.208Z,2.00
2019-03-20T15:47:06.166Z,1.53
2019-03-20T15:49:38.564Z,1.67
2019-03-20T15:52:12.170Z,1.83
2019-03-20T15:54:45.290Z,2.03
2019-03-20T15:57:17.480Z,1.90
2019-03-20T15:59:50.527Z,2.07
2019-03-20T16:02:24.544Z,2.07
2019-03-20T16:04:58.968Z,1.83
2019-03-20T16:07:31.392Z,1.80
2019-03-20T16:10:04.097Z,1.60
2019-03-20T16:12:36.539Z,1.67
2019-03-20T16:15:11.846Z,1.70
2019-03-20T16:17:43.834Z,1.80
2019-03-20T16:20:16.007Z,2.00
2019-03-20T16:22:52.013Z,1.70
2019-03-20T16:25:24.359Z,1.60
2019-03-20T16:27:58.440Z,2.00
2019-03-20T16:30:31.332Z,1.70
2019-03-20T16:33:04.659Z,1.93
2019-03-20T16:35:42.136Z,1.90
2019-03-20T16:38:14.805Z,2.10
2019-03-20T16:40:47.312Z,1.90
2019-03-20T16:43:19.311Z,1.73
2019-03-20T16:45:54.160Z,1.70
2019-03-20T16:48:27.337Z,1.73
2019-03-20T16:51:02.574Z,1.80
2019-03-20T16:53:35.048Z,1.93
2019-03-20T16:56:08.059Z,1.80
2019-03-20T16:58:41.121Z,2.00
2019-03-20T17:01:15.875Z,1.87
2019-03-20T17:03:48.968Z,2.00
2019-03-20T17:06:23.081Z,2.07
2019-03-20T17:08:57.782Z,2.00
2019-03-20T17:11:38.137Z,2.03
2019-03-20T17:14:04.730Z,2.00
2019-03-20T17:16:42.744Z,2.03
2019-03-20T17:19:12.764Z,2.03
2019-03-20T17:21:47.902Z,2.23
2019-03-20T17:24:20.138Z,2.07
2019-03-20T17:26:52.483Z,1.80
2019-03-20T17:29:27.640Z,2.07
2019-03-20T17:32:00.245Z,1.67
2019-03-20T17:34:32.342Z,2.47
2019-03-20T17:37:05.427Z,1.90
2019-03-20T17:39:37.390Z,1.93
2019-03-20T17:42:09.356Z,2.33
2019-03-20T17:44:41.272Z,2.20
2019-03-20T17:47:13.177Z,2.30
2019-03-20T17:49:46.605Z,2.20
2019-03-20T17:52:21.225Z,2.60
2019-03-20T17:54:54.650Z,2.30
2019-03-20T17:57:27.653Z,2.23
2019-03-20T17:59:59.892Z,2.47
2019-03-20T18:02:33.484Z,2.30
2019-03-20T18:05:06.101Z,2.80
2019-03-20T18:07:39.852Z,2.67
2019-03-20T18:10:12.000Z,3.10
2019-03-20T18:12:45.298Z,3.03
2019-03-20T18:15:17.543Z,3.30
2019-03-20T18:17:53.552Z,3.30
2019-03-20T18:20:27.398Z,3.17
2019-03-20T18:23:01.435Z,3.30
2019-03-20T18:25:33.927Z,3.20
2019-03-20T18:28:06.381Z,3.23
2019-03-20T18:30:40.512Z,2.83
2019-03-20T18:33:21.239Z,2.60
2019-03-20T18:35:53.941Z,2.60
2019-03-20T18:38:28.079Z,2.90
2019-03-20T18:41:04.840Z,3.00
2019-03-20T18:43:37.866Z,2.97
2019-03-20T18:46:10.802Z,2.70
2019-03-20T18:48:43.924Z,2.80
2019-03-20T18:51:16.697Z,2.40
2019-03-20T18:53:49.154Z,2.70
2019-03-20T18:56:22.120Z,2.97
2019-03-20T18:58:57.540Z,2.83
2019-03-20T19:01:30.235Z,3.73
2019-03-20T19:04:02.447Z,3.37
2019-03-20T19:06:36.786Z,3.37
2019-03-20T19:09:10.781Z,3.70
2019-03-20T19:11:44.016Z,4.10
2019-03-20T19:14:16.982Z,3.87
2019-03-20T19:16:49.274Z,4.10
2019-03-20T19:19:22.951Z,4.50
2019-03-20T19:21:57.529Z,5.10
2019-03-20T19:24:31.881Z,4.60
2019-03-20T19:27:04.375Z,4.60
2019-03-20T19:29:36.646Z,5.00
2019-03-20T19:32:09.264Z,5.43
2019-03-20T19:34:43.870Z,6.33
2019-03-20T19:37:18.679Z,5.87
2019-03-20T19:39:50.854Z,5.70
2019-03-20T19:42:24.104Z,6.23
2019-03-20T19:44:57.103Z,6.20
2019-03-20T19:47:30.505Z,5.60
2019-03-20T19:50:02.723Z,6.43
2019-03-20T19:52:34.734Z,6.57
2019-03-20T19:55:07.871Z,6.40
2019-03-20T19:57:41.448Z,6.07
2019-03-20T20:00:16.089Z,6.27
2019-03-20T20:02:48.500Z,6.60
2019-03-20T20:05:23.812Z,6.60
2019-03-20T20:07:55.831Z,6.50
2019-03-20T20:10:28.567Z,6.47
2019-03-20T20:13:00.610Z,6.90
2019-03-20T20:15:34.481Z,6.80
2019-03-20T20:18:07.522Z,6.53
2019-03-20T20:20:41.982Z,6.63
2019-03-20T20:23:15.627Z,6.57
2019-03-20T20:25:48.478Z,6.67
2019-03-20T20:28:22.136Z,6.27
2019-03-20T20:30:54.253Z,6.10
2019-03-20T20:33:28.431Z,5.90
2019-03-20T20:36:02.643Z,6.13
2019-03-20T20:38:35.000Z,6.43
2019-03-20T20:41:07.322Z,5.87
2019-03-20T20:43:40.928Z,6.20
2019-03-20T20:46:14.212Z,6.20
2019-03-20T20:48:46.709Z,7.03
2019-03-20T20:51:19.463Z,6.70
2019-03-20T20:53:52.107Z,6.97
2019-03-20T20:56:24.212Z,7.20
2019-03-20T20:58:58.020Z,7.10
2019-03-20T21:01:30.402Z,6.77
2019-03-20T21:04:02.360Z,6.87
2019-03-20T21:06:36.544Z,7.47
2019-03-20T21:09:09.985Z,6.90
2019-03-20T21:11:43.548Z,7.57
2019-03-20T21:14:15.467Z,7.00
2019-03-20T21:16:48.179Z,6.87
2019-03-20T21:19:38.204Z,6.83
2019-03-20T21:22:47.166Z,8.10
2019-03-20T21:25:21.095Z,6.17
2019-03-20T21:28:58.174Z,5.60
2019-03-20T21:31:38.139Z,5.90
2019-03-20T21:34:50.381Z,6.30
2019-03-20T21:38:09.679Z,5.70
2019-03-20T21:41:15.142Z,5.83
2019-03-20T21:44:30.401Z,6.80
2019-03-20T21:47:38.895Z,5.80
2019-03-20T21:51:03.676Z,6.30
2019-03-20T21:54:09.035Z,6.47
2019-03-20T21:56:48.945Z,6.77
2019-03-20T21:59:57.184Z,6.50
2019-03-20T22:02:41.479Z,7.03
2019-03-20T22:05:30.014Z,6.47
2019-03-20T22:08:03.212Z,6.40
2019-03-20T22:11:10.914Z,6.50
2019-03-20T22:13:52.957Z,6.00
2019-03-20T22:17:02.637Z,5.40
2019-03-20T22:20:22.681Z,5.53
2019-03-20T22:23:40.619Z,5.57
2019-03-20T22:26:54.635Z,5.70
2019-03-20T22:29:29.604Z,5.50
2019-03-20T22:32:48.523Z,4.90
2019-03-20T22:36:07.800Z,6.20
2019-03-20T22:39:24.372Z,6.30
2019-03-20T22:42:36.770Z,6.77
2019-03-20T22:45:30.272Z,6.13
2019-03-20T22:48:49.507Z,6.77
2019-03-20T22:52:02.204Z,7.93
2019-03-20T22:55:24.894Z,7.50
2019-03-20T22:58:25.723Z,5.90
2019-03-20T23:00:58.725Z,6.07
2019-03-20T23:03:39.679Z,5.80
2019-03-20T23:06:12.317Z,5.73
2019-03-20T23:08:47.084Z,6.00
2019-03-20T23:11:20.953Z,6.57
2019-03-20T23:13:54.631Z,6.10
2019-03-20T23:16:27.477Z,6.23
2019-03-20T23:19:00.447Z,6.57
2019-03-20T23:21:33.064Z,6.87
2019-03-20T23:24:06.731Z,6.87
2019-03-20T23:26:41.685Z,6.97
2019-03-20T23:29:15.519Z,7.83
2019-03-20T23:31:50.032Z,7.23
2019-03-20T23:34:22.692Z,6.97
2019-03-20T23:36:55.504Z,7.40
2019-03-20T23:39:29.454Z,6.87
2019-03-20T23:42:02.206Z,7.47
2019-03-20T23:44:34.787Z,7.27
2019-03-20T23:47:07.336Z,7.20
2019-03-20T23:49:40.211Z,7.30
2019-03-20T23:52:12.972Z,7.47
2019-03-20T23:54:50.682Z,7.10
2019-03-20T23:57:24.387Z,6.83
2019-03-20T23:59:59.468Z,7.40
